Terminal Aerodrome Forecast
Issued by NWS Charleston, WV

Current Version | Previous Version | Text Only | Print | Product List | Glossary Off
Versions: 1 2 3 4 5 6 7 8 9 10 11 12 13 14 15 16 17 18 19 20 21 22 23 24 25 26 27 28 29

000
FTUS41 KRLX 231400 AAC
TAFEKN
TAF AMD
KEKN 231458Z 2315/2412 02004KT P6SM SCT002
      TEMPO 2315/2316 5SM BR BKN002
     FM240300 00000KT 3SM BR FEW250
     FM240500 00000KT 1SM BR SCT001
     FM240600 00000KT 1/4SM FG VV001=

USA.gov is the U.S. government's official web portal to all federal, state and local government web resources and services.